Adfines Sun — 9HA2925 — position and weather

sailwx.info

Track history (hours):
 
Tides and Currents Weather Stations Pressure Air Temp Water Temp Dewpoint Dewpoint Depression Visibility Wind Speed Wind Dir Waves Ship Positions

Adfines Sun

Last reported at 2017-Sep-13 15:57 UTC. Time now 2017-Sep-24 00:01 UTC.
Position N 29°30' W 094°52'.
Warning: this ship's position is 10 days out of date.

Length 162 m; draft 8 m.

Type: Tanker. MMSI: 256764000.

Date/timePositionNaut miles runAvg speedWind from/ knotsBaromVisibWave heightAir tempDewpointWater temp
2017-Sep-13 15:57N 29°30' W 094°52'612.8
2017-Sep-13 15:30N 29°34' W 094°56'612.4
2017-Sep-13 15:00N 29°40' W 094°59'5 8.8
2017-Sep-13 14:29N 29°44' W 095°02'4 0.2
2017-Sep-12 14:28N 29°45' W 095°06'4 6.9
2017-Sep-12 13:56N 29°44' W 095°02'4 8.4
2017-Sep-12 13:30N 29°41' W 094°59'612.3
2017-Sep-12 13:00N 29°35' W 094°56'713.1
2017-Sep-12 12:30N 29°30' W 094°52'  
2017-Sep-07 00:00N 29°27' W 094°50'613.3
2017-Sep-06 23:31N 29°32' W 094°54'713.4
2017-Sep-06 23:00N 29°38' W 094°58'611.7
2017-Sep-06 22:27N 29°44' W 095°02'4 8.4
2017-Sep-06 22:00N 29°46' W 095°05'0 0.0
2017-Sep-05 18:55N 29°46' W 095°05'2 5.0
2017-Sep-05 18:26N 29°44' W 095°03'2 5.0
2017-Sep-05 18:00N 29°43' W 095°01'3 6.7
2017-Sep-05 17:30N 29°40' W 094°59'510.5
2017-Sep-05 17:00N 29°35' W 094°56'610.9
2017-Sep-05 16:30N 29°31' W 094°53'  
Track history (hours):
 
Tides and Currents Weather Stations Pressure Air Temp Water Temp Dewpoint Dewpoint Depression Visibility Wind Speed Wind Dir Waves Ship Positions

Adfines Sun

Last reported at 2017-Sep-13 15:57 UTC. Time now 2017-Sep-24 00:01 UTC.
Position N 29°30' W 094°52'.
Warning: this ship's position is 10 days out of date.

Length 162 m; draft 8 m.

Type: Tanker. MMSI: 256764000.

Date/timePositionNaut miles runAvg speedWind from/ knotsBaromVisibWave heightAir tempDewpointWater temp
2017-Sep-13 15:57N 29°30' W 094°52'612.8
2017-Sep-13 15:30N 29°34' W 094°56'612.4
2017-Sep-13 15:00N 29°40' W 094°59'5 8.8
2017-Sep-13 14:29N 29°44' W 095°02'4 0.2
2017-Sep-12 14:28N 29°45' W 095°06'4 6.9
2017-Sep-12 13:56N 29°44' W 095°02'4 8.4
2017-Sep-12 13:30N 29°41' W 094°59'612.3
2017-Sep-12 13:00N 29°35' W 094°56'713.1
2017-Sep-12 12:30N 29°30' W 094°52'  
2017-Sep-07 00:00N 29°27' W 094°50'613.3
2017-Sep-06 23:31N 29°32' W 094°54'713.4
2017-Sep-06 23:00N 29°38' W 094°58'611.7
2017-Sep-06 22:27N 29°44' W 095°02'4 8.4
2017-Sep-06 22:00N 29°46' W 095°05'0 0.0
2017-Sep-05 18:55N 29°46' W 095°05'2 5.0
2017-Sep-05 18:26N 29°44' W 095°03'2 5.0
2017-Sep-05 18:00N 29°43' W 095°01'3 6.7
2017-Sep-05 17:30N 29°40' W 094°59'510.5
2017-Sep-05 17:00N 29°35' W 094°56'610.9
2017-Sep-05 16:30N 29°31' W 094°53'  

Dump ship's entire track history